createdAt,value
2023-12-04T00:00:32.865Z,21.97
2023-12-04T00:03:00.338Z,21.50
2023-12-04T00:05:27.084Z,22.70
2023-12-04T00:07:54.125Z,23.29
2023-12-04T00:10:22.241Z,23.09
2023-12-04T00:12:48.968Z,23.25
2023-12-04T00:15:15.783Z,23.16
2023-12-04T00:17:42.589Z,23.46
2023-12-04T00:20:09.941Z,22.76
2023-12-04T00:22:36.666Z,22.67
2023-12-04T00:25:04.492Z,22.51
2023-12-04T00:27:32.607Z,23.76
2023-12-04T00:29:59.320Z,23.91
2023-12-04T00:32:26.089Z,22.95
2023-12-04T00:34:52.870Z,22.13
2023-12-04T00:37:19.599Z,22.34
2023-12-04T00:39:46.421Z,23.27
2023-12-04T00:42:13.174Z,24.07
2023-12-04T00:44:41.290Z,23.91
2023-12-04T00:47:08.027Z,24.08
2023-12-04T00:49:34.973Z,24.52
2023-12-04T00:52:01.772Z,24.68
2023-12-04T00:54:28.504Z,24.50
2023-12-04T00:56:55.260Z,24.14
2023-12-04T00:59:22.022Z,24.68
2023-12-04T01:01:50.138Z,24.69
2023-12-04T01:04:17.012Z,24.13
2023-12-04T01:06:43.755Z,23.83
2023-12-04T01:09:10.555Z,23.39
2023-12-04T01:11:37.257Z,22.39
2023-12-04T01:14:03.946Z,22.85
2023-12-04T01:16:30.633Z,24.04
2023-12-04T01:18:58.721Z,23.54
2023-12-04T01:21:25.479Z,21.96
2023-12-04T01:23:52.320Z,22.37
2023-12-04T01:26:18.990Z,22.46
2023-12-04T01:28:45.780Z,22.48
2023-12-04T01:31:12.501Z,24.05
2023-12-04T01:33:39.244Z,23.88
2023-12-04T01:36:08.549Z,23.49
2023-12-04T01:38:35.268Z,23.36
2023-12-04T01:41:01.994Z,23.68
2023-12-04T01:43:28.724Z,23.07
2023-12-04T01:45:55.493Z,21.47
2023-12-04T01:48:22.355Z,22.85
2023-12-04T01:50:49.100Z,22.12
2023-12-04T01:53:17.227Z,22.49
2023-12-04T01:55:43.940Z,22.68
2023-12-04T01:58:10.697Z,22.29
2023-12-04T02:00:37.491Z,23.20
2023-12-04T02:03:04.255Z,22.78
2023-12-04T02:05:30.985Z,21.98
2023-12-04T02:07:58.042Z,21.91
2023-12-04T02:10:26.205Z,21.60
2023-12-04T02:12:53.032Z,20.43
2023-12-04T02:15:19.792Z,20.07
2023-12-04T02:17:46.591Z,20.11
2023-12-04T02:20:14.040Z,20.65
2023-12-04T02:22:40.840Z,20.51
2023-12-04T02:25:14.535Z,20.43
2023-12-04T02:27:50.577Z,21.16
2023-12-04T02:30:18.653Z,20.57
2023-12-04T02:32:46.669Z,21.53
2023-12-04T02:35:13.621Z,20.94
2023-12-04T02:37:40.279Z,21.27
2023-12-04T02:40:09.785Z,20.14
2023-12-04T02:42:36.461Z,20.19
2023-12-04T02:45:03.523Z,20.81
2023-12-04T02:47:30.395Z,20.79
2023-12-04T02:49:57.366Z,21.56
2023-12-04T02:52:24.029Z,22.62
2023-12-04T02:54:50.816Z,22.47
2023-12-04T02:57:18.896Z,21.64
2023-12-04T02:59:45.668Z,22.27
2023-12-04T03:02:12.388Z,22.44
2023-12-04T03:04:39.119Z,21.70
2023-12-04T03:07:05.837Z,21.37
2023-12-04T03:09:47.964Z,21.56
2023-12-04T03:12:16.355Z,22.05
2023-12-04T03:14:44.379Z,22.64
2023-12-04T03:17:11.196Z,22.58
2023-12-04T03:19:38.015Z,21.81
2023-12-04T03:22:08.102Z,21.71
2023-12-04T03:24:34.896Z,21.82
2023-12-04T03:27:01.643Z,21.25
2023-12-04T03:29:28.426Z,21.84
2023-12-04T03:31:56.475Z,21.70
2023-12-04T03:34:23.259Z,21.83
2023-12-04T03:36:50.019Z,21.96
2023-12-04T03:39:16.784Z,21.48
2023-12-04T03:41:43.444Z,21.57
2023-12-04T03:44:12.834Z,22.37
2023-12-04T03:46:39.573Z,21.22
2023-12-04T03:49:07.806Z,21.80
2023-12-04T03:51:34.586Z,21.72
2023-12-04T03:54:01.402Z,22.65
2023-12-04T03:56:28.103Z,22.52
2023-12-04T03:58:54.898Z,22.73
2023-12-04T04:01:21.621Z,22.53
2023-12-04T04:03:48.462Z,22.43
2023-12-04T04:06:16.659Z,21.03
2023-12-04T04:08:43.536Z,20.84
2023-12-04T04:11:10.209Z,20.47
2023-12-04T04:13:36.931Z,21.66
2023-12-04T04:16:04.112Z,22.95
2023-12-04T04:18:31.090Z,21.97
2023-12-04T04:20:57.836Z,23.36
2023-12-04T04:23:25.912Z,22.90
2023-12-04T04:25:52.677Z,23.13
2023-12-04T04:28:19.469Z,23.54
2023-12-04T04:30:46.245Z,22.44
2023-12-04T04:33:12.994Z,22.92
2023-12-04T04:35:39.835Z,23.10
2023-12-04T04:38:06.526Z,23.57
2023-12-04T04:40:34.658Z,23.86
2023-12-04T04:43:01.764Z,24.13
2023-12-04T04:45:28.539Z,24.22
2023-12-04T04:47:55.459Z,22.11
2023-12-04T04:50:22.114Z,21.35
2023-12-04T04:52:48.990Z,21.20
2023-12-04T04:55:45.825Z,20.96
2023-12-04T04:58:03.926Z,21.61
2023-12-04T05:00:30.625Z,22.66
2023-12-04T05:02:57.366Z,22.95
2023-12-04T05:05:24.057Z,22.72
2023-12-04T05:07:50.845Z,23.13
2023-12-04T05:10:17.566Z,23.61
2023-12-04T05:12:44.519Z,24.46
2023-12-04T05:15:12.592Z,23.61
2023-12-04T05:17:39.453Z,22.96
2023-12-04T05:20:07.675Z,23.07
2023-12-04T05:22:35.215Z,23.05
2023-12-04T05:25:01.990Z,23.91
2023-12-04T05:27:28.765Z,23.38
2023-12-04T05:29:55.435Z,23.88
2023-12-04T05:32:23.497Z,24.68
2023-12-04T05:34:50.261Z,22.40
2023-12-04T05:37:17.060Z,22.86
2023-12-04T05:39:43.839Z,23.65
2023-12-04T05:42:10.575Z,22.45
2023-12-04T05:44:37.283Z,23.47
2023-12-04T05:47:04.115Z,24.47
2023-12-04T05:49:32.224Z,23.85
2023-12-04T05:51:59.027Z,25.26
2023-12-04T05:54:25.749Z,24.42
2023-12-04T05:56:52.424Z,23.84
2023-12-04T05:59:19.160Z,24.59
2023-12-04T06:01:45.873Z,23.29
2023-12-04T06:04:12.660Z,23.33
2023-12-04T06:06:40.752Z,23.77
2023-12-04T06:09:07.556Z,23.79
2023-12-04T06:11:34.308Z,24.72
2023-12-04T06:14:01.020Z,24.47
2023-12-04T06:16:27.727Z,24.52
2023-12-04T06:18:54.555Z,24.55
2023-12-04T06:21:21.380Z,24.79
2023-12-04T06:23:50.152Z,25.46
2023-12-04T06:26:17.392Z,25.08
2023-12-04T06:28:44.784Z,24.90
2023-12-04T06:31:13.063Z,24.53
2023-12-04T06:33:40.427Z,25.04
2023-12-04T06:36:08.472Z,24.48
2023-12-04T06:38:35.209Z,24.73
2023-12-04T06:41:04.156Z,24.71
2023-12-04T06:43:31.578Z,26.64
2023-12-04T06:45:59.348Z,27.23
2023-12-04T06:48:26.727Z,26.91
2023-12-04T06:50:53.438Z,26.20
2023-12-04T06:53:20.128Z,26.32
2023-12-04T06:55:47.016Z,25.74
2023-12-04T06:58:15.158Z,26.27
2023-12-04T07:00:42.240Z,26.31
2023-12-04T07:03:08.960Z,25.53
2023-12-04T07:05:35.736Z,26.25
2023-12-04T07:08:02.456Z,26.24
2023-12-04T07:10:30.182Z,26.15
2023-12-04T07:12:59.077Z,26.31
2023-12-04T07:15:27.103Z,26.24
2023-12-04T07:17:54.830Z,25.74
2023-12-04T07:20:23.516Z,25.11
2023-12-04T07:22:50.264Z,25.23
2023-12-04T07:25:16.976Z,26.34
2023-12-04T07:27:43.694Z,26.77
2023-12-04T07:30:11.217Z,27.14
2023-12-04T07:32:39.406Z,25.82
2023-12-04T07:35:07.619Z,26.01
2023-12-04T07:37:34.358Z,25.45
2023-12-04T07:40:01.167Z,27.30
2023-12-04T07:42:27.969Z,26.91
2023-12-04T07:44:54.720Z,26.92
2023-12-04T07:47:21.412Z,26.66
2023-12-04T07:49:49.517Z,27.20
2023-12-04T07:52:16.315Z,27.96
2023-12-04T07:54:43.468Z,28.46
2023-12-04T07:57:10.206Z,27.17
2023-12-04T07:59:36.948Z,27.76
2023-12-04T08:02:03.904Z,27.05
2023-12-04T08:04:30.638Z,27.58
2023-12-04T08:06:58.798Z,27.39
2023-12-04T08:09:25.521Z,26.94
2023-12-04T08:11:53.825Z,27.26
2023-12-04T08:14:21.874Z,27.79
2023-12-04T08:16:48.905Z,27.01
2023-12-04T08:19:15.918Z,27.03
2023-12-04T08:21:42.698Z,26.92
2023-12-04T08:24:10.743Z,27.12
2023-12-04T08:26:37.405Z,25.98
2023-12-04T08:29:04.089Z,26.77
2023-12-04T08:31:30.836Z,26.66
2023-12-04T08:33:57.665Z,27.31
2023-12-04T08:36:24.450Z,27.70
2023-12-04T08:38:51.307Z,27.15
2023-12-04T08:41:19.339Z,27.20
2023-12-04T08:43:46.188Z,29.86
2023-12-04T08:46:13.806Z,30.26
2023-12-04T08:48:41.085Z,28.62
2023-12-04T08:51:08.159Z,27.53
2023-12-04T08:53:34.930Z,27.33
2023-12-04T08:56:01.672Z,28.68
2023-12-04T08:58:29.816Z,28.48
2023-12-04T09:00:56.592Z,28.20
2023-12-04T09:03:29.598Z,28.49
2023-12-04T09:05:59.517Z,29.89
2023-12-04T09:08:34.495Z,30.06
2023-12-04T09:11:18.342Z,28.37
2023-12-04T09:13:51.428Z,29.04
2023-12-04T09:16:18.403Z,28.59
2023-12-04T09:18:45.469Z,28.66
2023-12-04T09:21:12.311Z,28.27
2023-12-04T09:23:39.040Z,28.55
2023-12-04T09:26:06.051Z,28.41
2023-12-04T09:28:34.459Z,28.22
2023-12-04T09:31:02.642Z,28.41
2023-12-04T09:33:29.550Z,27.89
2023-12-04T09:35:56.345Z,28.11
2023-12-04T09:38:23.079Z,28.39
2023-12-04T09:40:49.768Z,28.24
2023-12-04T09:43:16.586Z,28.34
2023-12-04T09:45:43.355Z,27.76
2023-12-04T09:48:11.646Z,28.88
2023-12-04T09:50:38.612Z,28.56
2023-12-04T09:53:05.374Z,28.66
2023-12-04T09:55:32.118Z,28.80
2023-12-04T09:57:59.078Z,27.40
2023-12-04T10:00:25.899Z,27.81
2023-12-04T10:02:53.437Z,27.94
2023-12-04T10:05:21.727Z,28.06
2023-12-04T10:07:52.942Z,29.16
2023-12-04T10:10:19.714Z,27.10
2023-12-04T10:12:46.651Z,26.88
2023-12-04T10:15:13.589Z,27.54
2023-12-04T10:17:41.024Z,28.71
2023-12-04T10:20:09.849Z,26.83
2023-12-04T10:22:38.257Z,27.67
2023-12-04T10:25:14.913Z,27.85
2023-12-04T10:27:41.759Z,27.43
2023-12-04T10:30:09.342Z,27.47
2023-12-04T10:32:37.390Z,28.69
2023-12-04T10:35:04.562Z,28.68
2023-12-04T10:37:31.283Z,29.22
2023-12-04T10:39:59.327Z,30.44
2023-12-04T10:42:26.462Z,29.06
2023-12-04T10:44:53.208Z,29.45
2023-12-04T10:47:20.617Z,30.01
2023-12-04T10:49:47.374Z,29.81
2023-12-04T10:52:14.154Z,28.77
2023-12-04T10:54:40.914Z,29.54
2023-12-04T10:57:09.041Z,30.98
2023-12-04T10:59:37.663Z,32.18
2023-12-04T11:02:06.061Z,30.55
2023-12-04T11:04:32.884Z,30.78
2023-12-04T11:07:00.154Z,30.84
2023-12-04T11:09:27.602Z,32.06
2023-12-04T11:11:57.479Z,32.39
2023-12-04T11:14:26.323Z,31.81
2023-12-04T11:16:56.993Z,31.89
2023-12-04T11:19:27.263Z,33.06
2023-12-04T11:21:54.164Z,32.44
2023-12-04T11:24:20.906Z,32.96
2023-12-04T11:26:47.691Z,32.93
2023-12-04T11:29:14.370Z,33.00
2023-12-04T11:31:42.698Z,33.95
2023-12-04T11:34:09.506Z,32.90
2023-12-04T11:36:36.381Z,33.36
2023-12-04T11:39:03.217Z,33.55
2023-12-04T11:41:30.680Z,31.80
2023-12-04T11:43:57.809Z,30.95
2023-12-04T11:46:26.053Z,29.56
2023-12-04T11:48:56.306Z,29.29
2023-12-04T11:51:46.269Z,30.64
2023-12-04T11:54:14.818Z,29.02
2023-12-04T11:56:41.501Z,28.06
2023-12-04T11:59:08.380Z,27.10
2023-12-04T12:01:35.212Z,27.28
2023-12-04T12:04:05.615Z,26.05
2023-12-04T12:06:32.787Z,25.13
2023-12-04T12:08:59.559Z,25.62
2023-12-04T12:11:26.407Z,24.56
2023-12-04T12:13:54.156Z,26.47
2023-12-04T12:16:21.533Z,27.90
2023-12-04T12:18:48.884Z,26.92
2023-12-04T12:21:17.822Z,26.57
2023-12-04T12:23:44.710Z,27.58
2023-12-04T12:26:11.609Z,27.26
2023-12-04T12:28:38.334Z,27.53
2023-12-04T12:31:05.655Z,25.93
2023-12-04T12:33:32.451Z,26.42
2023-12-04T12:36:03.253Z,26.37
2023-12-04T12:38:36.760Z,27.26
2023-12-04T12:41:12.435Z,28.22
2023-12-04T12:43:58.529Z,28.44
2023-12-04T12:50:26.823Z,26.76
2023-12-04T12:52:53.662Z,24.00
2023-12-04T12:55:25.140Z,23.93
2023-12-04T12:57:51.874Z,23.61
2023-12-04T13:00:18.863Z,23.24
2023-12-04T13:02:45.806Z,24.66
2023-12-04T13:05:12.562Z,25.87
2023-12-04T13:07:39.321Z,28.66
2023-12-04T13:10:07.150Z,26.35
2023-12-04T13:12:35.388Z,26.32
2023-12-04T13:15:02.307Z,26.63
2023-12-04T13:17:29.096Z,26.37
2023-12-04T13:19:55.817Z,25.81
2023-12-04T13:22:22.492Z,26.99
2023-12-04T13:24:49.179Z,27.32
2023-12-04T13:27:15.940Z,27.46
2023-12-04T13:29:43.964Z,27.42
2023-12-04T13:32:10.686Z,27.97
2023-12-04T13:34:37.597Z,27.55
2023-12-04T13:37:04.371Z,28.02
2023-12-04T13:39:31.051Z,28.56
2023-12-04T13:41:57.796Z,27.97
2023-12-04T13:44:24.463Z,27.55
2023-12-04T13:46:52.505Z,27.57
2023-12-04T13:49:19.204Z,27.32
2023-12-04T13:51:46.014Z,27.37
2023-12-04T13:54:12.709Z,27.29
2023-12-04T13:56:39.428Z,28.43
2023-12-04T13:59:06.138Z,32.94
2023-12-04T14:01:32.953Z,34.07
2023-12-04T14:04:01.139Z,32.16
2023-12-04T14:06:28.117Z,29.90
2023-12-04T14:08:57.035Z,30.16
2023-12-04T14:11:24.390Z,39.40
2023-12-04T14:13:51.083Z,47.05
2023-12-04T14:16:17.820Z,45.24
2023-12-04T14:18:44.518Z,47.56
2023-12-04T14:21:12.557Z,35.42
2023-12-04T14:23:39.218Z,35.46
2023-12-04T14:26:06.164Z,31.50
2023-12-04T14:28:40.541Z,31.09
2023-12-04T14:31:10.018Z,36.45
2023-12-04T14:33:39.162Z,41.96
2023-12-04T14:36:08.057Z,62.79
2023-12-04T14:38:36.088Z,53.09
2023-12-04T14:41:03.050Z,36.11
2023-12-04T14:43:29.751Z,31.00
2023-12-04T14:45:56.468Z,29.74
2023-12-04T14:48:23.246Z,29.54
2023-12-04T14:50:49.989Z,27.67
2023-12-04T14:53:16.686Z,26.50
2023-12-04T14:55:45.066Z,27.59
2023-12-04T14:58:11.782Z,34.47
2023-12-04T15:00:38.608Z,30.72
2023-12-04T15:03:05.561Z,28.45
2023-12-04T15:05:32.407Z,25.90
2023-12-04T15:07:59.768Z,25.32
2023-12-04T15:10:28.023Z,21.84
2023-12-04T15:12:56.107Z,20.95
2023-12-04T15:15:23.104Z,21.10
2023-12-04T15:17:49.838Z,19.62
2023-12-04T15:20:16.641Z,19.03
2023-12-04T15:22:43.405Z,19.30
2023-12-04T15:25:10.115Z,16.69
2023-12-04T15:27:36.867Z,16.58
2023-12-04T15:30:06.258Z,15.73
2023-12-04T15:32:33.094Z,16.81
2023-12-04T15:35:02.146Z,15.49
2023-12-04T15:37:29.876Z,15.97
2023-12-04T15:39:56.591Z,16.24
2023-12-04T15:42:23.395Z,18.58
2023-12-04T15:44:50.097Z,19.98
2023-12-04T15:47:18.149Z,20.51
2023-12-04T15:49:44.967Z,19.05
2023-12-04T15:52:11.776Z,18.47
2023-12-04T15:54:38.528Z,16.97
2023-12-04T15:57:05.579Z,17.38
2023-12-04T15:59:32.270Z,16.12
2023-12-04T16:01:59.108Z,15.70
2023-12-04T16:04:27.669Z,15.68
2023-12-04T16:06:57.172Z,15.45
2023-12-04T16:09:23.981Z,15.14
2023-12-04T16:11:50.867Z,14.32
2023-12-04T16:14:17.576Z,11.01
2023-12-04T16:16:44.350Z,10.50
2023-12-04T16:19:11.183Z,12.00
2023-12-04T16:21:39.847Z,11.55
2023-12-04T16:24:06.941Z,13.42
2023-12-04T16:26:33.671Z,14.65
2023-12-04T16:29:02.016Z,17.56
2023-12-04T16:31:28.966Z,13.92
2023-12-04T16:33:55.758Z,13.52
2023-12-04T16:36:23.170Z,17.34
2023-12-04T16:38:51.264Z,20.65
2023-12-04T16:41:17.989Z,19.83
2023-12-04T16:43:44.710Z,18.27
2023-12-04T16:46:11.558Z,17.86
2023-12-04T16:48:38.302Z,17.11
2023-12-04T16:51:05.718Z,17.51
2023-12-04T16:53:32.644Z,17.58
2023-12-04T16:56:00.930Z,19.81
2023-12-04T16:58:27.616Z,21.93
2023-12-04T17:00:54.417Z,23.46
2023-12-04T17:03:22.070Z,22.35
2023-12-04T17:05:51.067Z,20.44
2023-12-04T17:08:18.543Z,18.57
2023-12-04T17:10:45.971Z,15.73
2023-12-04T17:13:14.032Z,14.05
2023-12-04T17:15:40.888Z,14.87
2023-12-04T17:18:07.713Z,15.02
2023-12-04T17:20:34.483Z,12.95
2023-12-04T17:23:01.172Z,12.73
2023-12-04T17:25:27.924Z,13.54
2023-12-04T17:27:55.418Z,14.83
2023-12-04T17:30:24.031Z,13.21
2023-12-04T17:32:50.852Z,13.72
2023-12-04T17:35:17.784Z,14.45
2023-12-04T17:37:45.904Z,14.85
2023-12-04T17:40:13.502Z,16.31
2023-12-04T17:42:41.050Z,15.88
2023-12-04T17:45:09.519Z,15.39
2023-12-04T17:47:37.617Z,18.63
2023-12-04T17:50:04.971Z,23.16
2023-12-04T17:52:31.659Z,16.56
2023-12-04T17:54:58.627Z,15.73
2023-12-04T17:57:25.859Z,15.77
2023-12-04T17:59:53.409Z,16.35
2023-12-04T18:02:22.073Z,16.06
2023-12-04T18:04:51.936Z,16.69
2023-12-04T18:07:18.693Z,16.08
2023-12-04T18:09:45.430Z,15.72
2023-12-04T18:12:12.517Z,15.81
2023-12-04T18:14:39.281Z,17.59
2023-12-04T18:17:06.014Z,18.10
2023-12-04T18:19:32.853Z,17.77
2023-12-04T18:22:00.944Z,18.05
2023-12-04T18:24:27.769Z,17.75
2023-12-04T18:26:55.023Z,18.03
2023-12-04T18:29:22.486Z,18.82
2023-12-04T18:31:49.758Z,17.47
2023-12-04T18:34:22.640Z,15.87
2023-12-04T18:36:50.098Z,14.63
2023-12-04T18:39:18.180Z,13.82
2023-12-04T18:41:45.495Z,14.25
2023-12-04T18:44:12.760Z,14.21
2023-12-04T18:46:39.484Z,13.55
2023-12-04T18:49:06.398Z,15.91
2023-12-04T18:51:34.616Z,18.69
2023-12-04T18:54:02.108Z,20.81
2023-12-04T18:56:30.261Z,18.87
2023-12-04T18:58:57.024Z,16.92
2023-12-04T19:01:23.825Z,14.73
2023-12-04T19:03:50.810Z,12.75
2023-12-04T19:06:17.761Z,13.55
2023-12-04T19:08:44.501Z,13.42
2023-12-04T19:11:11.258Z,13.60
2023-12-04T19:13:39.337Z,13.93
2023-12-04T19:16:06.698Z,13.75
2023-12-04T19:18:35.524Z,14.09
2023-12-04T19:21:03.638Z,15.96
2023-12-04T19:23:30.536Z,17.52
2023-12-04T19:25:57.311Z,17.54
2023-12-04T19:28:24.059Z,18.18
2023-12-04T19:30:52.214Z,20.52
2023-12-04T19:33:25.664Z,24.56
2023-12-04T19:35:55.620Z,21.56
2023-12-04T19:38:23.535Z,21.26
2023-12-04T19:40:50.346Z,20.20
2023-12-04T19:43:17.090Z,20.03
2023-12-04T19:45:45.893Z,18.54
2023-12-04T19:48:14.140Z,19.05
2023-12-04T19:50:41.046Z,18.06
2023-12-04T19:53:07.807Z,15.55
2023-12-04T19:55:34.576Z,14.76
2023-12-04T19:58:01.289Z,14.46
2023-12-04T20:00:28.093Z,14.76
2023-12-04T20:02:54.893Z,16.01
2023-12-04T20:05:23.994Z,16.26
2023-12-04T20:07:50.832Z,16.07
2023-12-04T20:10:17.579Z,15.71
2023-12-04T20:12:44.287Z,16.25
2023-12-04T20:15:11.372Z,16.11
2023-12-04T20:17:38.213Z,17.53
2023-12-04T20:20:08.473Z,19.08
2023-12-04T20:22:36.681Z,18.73
2023-12-04T20:25:03.751Z,18.53
2023-12-04T20:27:30.544Z,17.74
2023-12-04T20:29:57.330Z,17.32
2023-12-04T20:32:24.174Z,16.17
2023-12-04T20:34:53.626Z,17.31
2023-12-04T20:37:20.380Z,21.46
2023-12-04T20:39:48.507Z,22.02
2023-12-04T20:42:15.334Z,15.41
2023-12-04T20:44:42.158Z,14.72
2023-12-04T20:47:08.846Z,14.70
2023-12-04T20:49:35.739Z,14.63
2023-12-04T20:52:02.522Z,13.84
2023-12-04T20:54:29.442Z,14.35
2023-12-04T20:56:57.856Z,14.49
2023-12-04T20:59:24.598Z,14.47
2023-12-04T21:01:51.820Z,14.42
2023-12-04T21:04:18.901Z,14.58
2023-12-04T21:06:45.750Z,15.06
2023-12-04T21:09:12.568Z,15.04
2023-12-04T21:11:39.324Z,15.13
2023-12-04T21:14:07.495Z,15.94
2023-12-04T21:16:34.526Z,15.23
2023-12-04T21:19:02.585Z,15.38
2023-12-04T21:21:29.536Z,16.03
2023-12-04T21:23:56.804Z,16.91
2023-12-04T21:26:23.535Z,16.16
2023-12-04T21:28:50.352Z,14.25
2023-12-04T21:31:18.477Z,13.03
2023-12-04T21:33:45.330Z,13.22
2023-12-04T21:36:12.389Z,13.21
2023-12-04T21:38:39.107Z,12.61
2023-12-04T21:41:06.056Z,14.25
2023-12-04T21:43:33.823Z,13.26
2023-12-04T21:46:02.155Z,12.77
2023-12-04T21:48:30.408Z,12.11
2023-12-04T21:50:57.467Z,10.97
2023-12-04T21:53:24.258Z,10.51
2023-12-04T21:55:50.974Z,10.86
2023-12-04T21:58:17.677Z,10.82
2023-12-04T22:00:44.431Z,11.26
2023-12-04T22:03:11.262Z,11.07
2023-12-04T22:05:39.672Z,11.29
2023-12-04T22:08:06.626Z,11.03
2023-12-04T22:10:33.404Z,11.28
2023-12-04T22:13:00.193Z,12.11
2023-12-04T22:15:27.138Z,12.95
2023-12-04T22:17:53.908Z,12.66
2023-12-04T22:20:21.956Z,13.60
2023-12-04T22:22:50.057Z,13.48
2023-12-04T22:25:19.798Z,13.17
2023-12-04T22:27:46.645Z,12.52
2023-12-04T22:30:13.942Z,13.09
2023-12-04T22:32:41.011Z,13.15
2023-12-04T22:35:08.172Z,12.57
2023-12-04T22:37:35.069Z,12.05
2023-12-04T22:40:05.900Z,12.80
2023-12-04T22:42:33.210Z,12.93
2023-12-04T22:45:00.034Z,12.73
2023-12-04T22:47:27.179Z,12.81
2023-12-04T22:49:53.996Z,13.79
2023-12-04T22:52:20.797Z,13.53
2023-12-04T22:54:47.623Z,14.00
2023-12-04T22:57:15.752Z,13.30
2023-12-04T22:59:42.544Z,12.99
2023-12-04T23:02:09.784Z,12.86
2023-12-04T23:04:36.560Z,13.43
2023-12-04T23:07:03.621Z,12.57
2023-12-04T23:09:30.338Z,11.64
2023-12-04T23:11:57.141Z,12.61
2023-12-04T23:14:27.247Z,11.59
2023-12-04T23:16:53.932Z,11.18
2023-12-04T23:19:20.676Z,10.75
2023-12-04T23:21:47.506Z,10.48
2023-12-04T23:24:14.527Z,9.32
2023-12-04T23:26:41.307Z,7.92
2023-12-04T23:29:07.969Z,7.52
2023-12-04T23:31:36.053Z,6.94
2023-12-04T23:34:03.232Z,6.36
2023-12-04T23:36:30.029Z,6.44
2023-12-04T23:38:56.702Z,6.38
2023-12-04T23:41:23.511Z,6.91
2023-12-04T23:43:50.217Z,8.42
2023-12-04T23:46:16.973Z,8.61
2023-12-04T23:48:45.209Z,9.08
2023-12-04T23:51:12.095Z,8.68
2023-12-04T23:53:38.810Z,7.53
2023-12-04T23:56:06.619Z,6.51
2023-12-04T23:58:33.524Z,5.58
